This is the latest recevied weather packets stored in our database for station/object DK6GC-10. If no packets are shown the sender has not sent any weather packets the latest 10 day(s).
| Time | Temp. | Humidity | Pressure | Rain* | Wind** | Luminosity | Snow |
|---|---|---|---|---|---|---|---|
| 1787773517 | 20° C | 83% | 1015.3 hPa | - | - | - | - |
| 1787772617 | 21.11° C | 79% | 1015.3 hPa | - | - | - | - |
| 1787771717 | 21.11° C | 79% | 1015.4 hPa | - | - | - | - |
| 1787770816 | 21.67° C | 77% | 1015.2 hPa | - | - | - | - |
| 1787769916 | 22.22° C | 73% | 1015 hPa | - | - | - | - |
| 1787769015 | 22.22° C | 72% | 1015.1 hPa | - | - | - | - |
| 1787768115 | 23.33° C | 68% | 1015.3 hPa | - | - | - | - |
| 1787767220 | 23.33° C | 65% | 1015.3 hPa | - | - | - | - |
| 1787766320 | 23.33° C | 66% | 1015.3 hPa | - | - | - | - |
| 1787765420 | 23.89° C | 66% | 1015.3 hPa | - | - | - | - |
| 1787764519 | 24.44° C | 66% | 1015.3 hPa | - | - | - | - |
| 1787763619 | 25° C | 59% | 1015.5 hPa | - | - | - | - |
| 1787762719 | 25.56° C | 57% | 1015.5 hPa | - | - | - | - |
| 1787761819 | 25.56° C | 61% | 1015.7 hPa | - | - | - | - |
| 1787760919 | 26.11° C | 56% | 1015.9 hPa | - | - | - | - |
| 1787760018 | 26.11° C | 55% | 1015.9 hPa | - | - | - | - |
| 1787759118 | 25.56° C | 56% | 1015.9 hPa | - | - | - | - |
| 1787758218 | 25.56° C | 57% | 1016 hPa | - | - | - | - |
| 1787757318 | 26.11° C | 54% | 1016.1 hPa | - | - | - | - |
| 1787756418 | 26.67° C | 54% | 1016.3 hPa | - | - | - | - |
| 1787755518 | 26.67° C | 52% | 1016.4 hPa | - | - | - | - |
| 1787754618 | 26.67° C | 53% | 1016.6 hPa | - | - | - | - |
| 1787753717 | 27.22° C | 52% | 1016.8 hPa | - | - | - | - |
| 1787752817 | 26.67° C | 52% | 1016.9 hPa | - | - | - | - |
| 1787751917 | 26.11° C | 53% | 1017 hPa | - | - | - | - |
* Rain since midnight (hover to see other rain measurements)
** Current wind speed in m/s (hover to see current wind gust speed)